Amherst, NE

6:49 PM CST on December 22, 2014 (GMT -0600)
Regency | Change Station
CLOSE
Current Station
Personal Weather Station
Location: Kearney, NE
Elevation: 2224 ft
Nearby Weather Stations

Elev 2224 ft 40.72 °N, 99.08 °W | Updated 10 seconds ago

Overcast
Overcast
37.5 °F
Feels Like 32 °F
N
6.7
Wind Variable Wind from North
Gusts 11.5 mph

Today
High -- | Low -- °F
--% Chance of Precip.
Yesterday
High -- | Low -- °F
Precip. -- in
7:58 AM 5:12 PM
New Moon, 1% visible
Pressure 29.55 in
Visibility 10.0 miles
Clouds Mostly Cloudy 7000 ft
Overcast 8000 ft
Windchill 32 °F
Dew Point 32 °F
Humidity 79%
Rainfall 0.00 in
Snow Depth Not available.
UV 0 out of 12
Pollen .10 out of 12
Air Quality Not available.
Flu Activity Not available.
METAR KEAR 230035Z 30009KT 10SM BKN070 OVC080 04/M01 A2955 RMK AO1

More Conditions Fewer Conditions

Pressure 29.55 in
Visibility 10.0 miles
Clouds Mostly Cloudy 7000 ft
Overcast 8000 ft
Windchill 32 °F
Dew Point 32 °F
Humidity 79%
Rainfall 0.00 in
Snow Depth Not available.
UV 0 out of 12
Pollen .10 out of 12
Air Quality Not available.
Flu Activity Not available.
METAR KEAR 230035Z 30009KT 10SM BKN070 OVC080 04/M01 A2955 RMK AO1

More Conditions Fewer Conditions

10-Day Weather Forecast

Almanac

Astronomy

Dec. 22, 2014 Rise Set
Actual Time
Civil Twilight
Nautical Twilight
Astronomical Twilight
Moon
Length of Visible Light
Length of Day
Tomorrow will be .
, % of the Moon is Illuminated

Today's Extremes

State Highs State Lows

Community

WunderPhotos

Upload Photos

1,779,740 photos uploaded!

WunderBlogs® & News

Nearby

Air Quality

  Air Quality AQ Index Pollutant
Not available.

Snow Depth

Station Depth Elevation

Earthquake Activity

City Distance Mag. Time & Date
Minimum magnitude displayed is 2.5.

Coastal Water Temperatures

Place Temperature

Nearby Weather Stations